sensor_id;sensor_type;location;lat;lon;timestamp;P1;durP1;ratioP1;P2;durP2;ratioP2
18172;SDS011;9211;48.818;9.312;2024-01-27T00:00:27;9.98;;;4.32;;
18172;SDS011;9211;48.818;9.312;2024-01-27T00:02:54;9.93;;;4.43;;
18172;SDS011;9211;48.818;9.312;2024-01-27T00:05:21;11.63;;;4.60;;
18172;SDS011;9211;48.818;9.312;2024-01-27T00:07:48;11.13;;;4.75;;
18172;SDS011;9211;48.818;9.312;2024-01-27T00:10:15;10.05;;;4.60;;
18172;SDS011;9211;48.818;9.312;2024-01-27T00:12:43;10.20;;;4.20;;
18172;SDS011;9211;48.818;9.312;2024-01-27T00:15:12;10.23;;;4.47;;
18172;SDS011;9211;48.818;9.312;2024-01-27T00:17:39;12.98;;;5.30;;
18172;SDS011;9211;48.818;9.312;2024-01-27T00:20:07;10.32;;;4.55;;
18172;SDS011;9211;48.818;9.312;2024-01-27T00:22:34;11.60;;;4.50;;
18172;SDS011;9211;48.818;9.312;2024-01-27T00:25:01;9.10;;;4.30;;
18172;SDS011;9211;48.818;9.312;2024-01-27T00:27:28;10.57;;;4.70;;
18172;SDS011;9211;48.818;9.312;2024-01-27T00:29:56;11.90;;;4.68;;
18172;SDS011;9211;48.818;9.312;2024-01-27T00:32:23;10.27;;;4.60;;
18172;SDS011;9211;48.818;9.312;2024-01-27T00:34:50;11.32;;;4.53;;
18172;SDS011;9211;48.818;9.312;2024-01-27T00:37:17;10.65;;;5.18;;
18172;SDS011;9211;48.818;9.312;2024-01-27T00:39:44;9.30;;;4.40;;
18172;SDS011;9211;48.818;9.312;2024-01-27T00:42:11;9.85;;;4.50;;
18172;SDS011;9211;48.818;9.312;2024-01-27T00:44:38;10.87;;;5.10;;
18172;SDS011;9211;48.818;9.312;2024-01-27T00:47:06;11.52;;;4.88;;
18172;SDS011;9211;48.818;9.312;2024-01-27T00:49:33;12.32;;;5.03;;
18172;SDS011;9211;48.818;9.312;2024-01-27T00:52:00;10.73;;;4.85;;
18172;SDS011;9211;48.818;9.312;2024-01-27T00:54:27;12.75;;;5.35;;
18172;SDS011;9211;48.818;9.312;2024-01-27T00:56:54;10.03;;;4.80;;
18172;SDS011;9211;48.818;9.312;2024-01-27T00:59:21;11.63;;;4.68;;
18172;SDS011;9211;48.818;9.312;2024-01-27T01:01:47;12.80;;;5.47;;
18172;SDS011;9211;48.818;9.312;2024-01-27T01:04:16;11.75;;;5.63;;
18172;SDS011;9211;48.818;9.312;2024-01-27T01:06:43;10.55;;;4.85;;
18172;SDS011;9211;48.818;9.312;2024-01-27T01:09:09;11.43;;;4.78;;
18172;SDS011;9211;48.818;9.312;2024-01-27T01:11:36;11.80;;;4.82;;
18172;SDS011;9211;48.818;9.312;2024-01-27T01:14:04;8.85;;;4.68;;
18172;SDS011;9211;48.818;9.312;2024-01-27T01:16:31;10.55;;;4.40;;
18172;SDS011;9211;48.818;9.312;2024-01-27T01:18:57;10.35;;;4.82;;
18172;SDS011;9211;48.818;9.312;2024-01-27T01:21:26;12.45;;;5.10;;
18172;SDS011;9211;48.818;9.312;2024-01-27T01:23:53;13.13;;;4.97;;
18172;SDS011;9211;48.818;9.312;2024-01-27T01:26:20;11.30;;;5.07;;
18172;SDS011;9211;48.818;9.312;2024-01-27T01:28:47;9.95;;;4.93;;
18172;SDS011;9211;48.818;9.312;2024-01-27T01:31:14;10.77;;;4.90;;
18172;SDS011;9211;48.818;9.312;2024-01-27T01:33:41;10.63;;;4.97;;
18172;SDS011;9211;48.818;9.312;2024-01-27T01:36:09;11.43;;;5.00;;
18172;SDS011;9211;48.818;9.312;2024-01-27T01:38:37;10.15;;;4.75;;
18172;SDS011;9211;48.818;9.312;2024-01-27T01:41:04;9.35;;;4.88;;
18172;SDS011;9211;48.818;9.312;2024-01-27T01:43:30;10.15;;;4.70;;
18172;SDS011;9211;48.818;9.312;2024-01-27T01:45:57;9.52;;;5.00;;
18172;SDS011;9211;48.818;9.312;2024-01-27T01:48:24;11.50;;;5.03;;
18172;SDS011;9211;48.818;9.312;2024-01-27T01:50:52;11.07;;;5.20;;
18172;SDS011;9211;48.818;9.312;2024-01-27T01:53:19;13.02;;;5.90;;
18172;SDS011;9211;48.818;9.312;2024-01-27T01:55:48;11.32;;;5.75;;
18172;SDS011;9211;48.818;9.312;2024-01-27T01:58:16;11.90;;;6.00;;
18172;SDS011;9211;48.818;9.312;2024-01-27T02:00:43;13.02;;;6.05;;
18172;SDS011;9211;48.818;9.312;2024-01-27T02:03:10;14.75;;;6.00;;
18172;SDS011;9211;48.818;9.312;2024-01-27T02:05:38;12.05;;;6.30;;
18172;SDS011;9211;48.818;9.312;2024-01-27T02:08:05;14.60;;;5.90;;
18172;SDS011;9211;48.818;9.312;2024-01-27T02:10:32;13.90;;;6.20;;
18172;SDS011;9211;48.818;9.312;2024-01-27T02:13:03;13.35;;;6.30;;
18172;SDS011;9211;48.818;9.312;2024-01-27T02:15:31;12.38;;;6.50;;
18172;SDS011;9211;48.818;9.312;2024-01-27T02:17:58;12.88;;;6.03;;
18172;SDS011;9211;48.818;9.312;2024-01-27T02:20:25;14.05;;;5.70;;
18172;SDS011;9211;48.818;9.312;2024-01-27T02:22:52;12.25;;;5.60;;
18172;SDS011;9211;48.818;9.312;2024-01-27T02:25:20;10.13;;;5.45;;
18172;SDS011;9211;48.818;9.312;2024-01-27T02:27:47;11.13;;;5.60;;
18172;SDS011;9211;48.818;9.312;2024-01-27T02:30:14;10.68;;;5.50;;
18172;SDS011;9211;48.818;9.312;2024-01-27T02:32:41;12.80;;;5.15;;
18172;SDS011;9211;48.818;9.312;2024-01-27T02:35:08;10.35;;;5.20;;
18172;SDS011;9211;48.818;9.312;2024-01-27T02:37:35;10.23;;;5.20;;
18172;SDS011;9211;48.818;9.312;2024-01-27T02:40:02;11.77;;;4.88;;
18172;SDS011;9211;48.818;9.312;2024-01-27T02:42:30;13.07;;;5.20;;
18172;SDS011;9211;48.818;9.312;2024-01-27T02:44:57;13.07;;;5.25;;
18172;SDS011;9211;48.818;9.312;2024-01-27T02:47:24;11.90;;;5.07;;
18172;SDS011;9211;48.818;9.312;2024-01-27T02:49:51;12.30;;;5.43;;
18172;SDS011;9211;48.818;9.312;2024-01-27T02:52:18;11.55;;;5.20;;
18172;SDS011;9211;48.818;9.312;2024-01-27T02:54:45;13.02;;;5.40;;
18172;SDS011;9211;48.818;9.312;2024-01-27T02:57:12;12.10;;;5.15;;
18172;SDS011;9211;48.818;9.312;2024-01-27T02:59:44;10.32;;;5.35;;
18172;SDS011;9211;48.818;9.312;2024-01-27T03:02:10;12.23;;;5.18;;
18172;SDS011;9211;48.818;9.312;2024-01-27T03:04:37;12.25;;;5.53;;
18172;SDS011;9211;48.818;9.312;2024-01-27T03:07:04;12.93;;;5.40;;
18172;SDS011;9211;48.818;9.312;2024-01-27T03:09:36;12.20;;;5.38;;
18172;SDS011;9211;48.818;9.312;2024-01-27T03:12:03;13.63;;;5.32;;
18172;SDS011;9211;48.818;9.312;2024-01-27T03:14:31;11.93;;;5.05;;
18172;SDS011;9211;48.818;9.312;2024-01-27T03:16:59;11.20;;;5.50;;
18172;SDS011;9211;48.818;9.312;2024-01-27T03:19:26;10.25;;;4.70;;
18172;SDS011;9211;48.818;9.312;2024-01-27T03:21:53;16.10;;;5.10;;
18172;SDS011;9211;48.818;9.312;2024-01-27T03:24:20;10.43;;;5.20;;
18172;SDS011;9211;48.818;9.312;2024-01-27T03:26:47;10.00;;;4.90;;
18172;SDS011;9211;48.818;9.312;2024-01-27T03:29:14;9.98;;;4.95;;
18172;SDS011;9211;48.818;9.312;2024-01-27T03:31:41;10.30;;;4.63;;
18172;SDS011;9211;48.818;9.312;2024-01-27T03:34:09;8.33;;;4.20;;
18172;SDS011;9211;48.818;9.312;2024-01-27T03:36:36;9.25;;;4.22;;
18172;SDS011;9211;48.818;9.312;2024-01-27T03:39:03;9.13;;;4.20;;
18172;SDS011;9211;48.818;9.312;2024-01-27T03:41:29;9.13;;;4.07;;
18172;SDS011;9211;48.818;9.312;2024-01-27T03:43:56;10.02;;;4.07;;
18172;SDS011;9211;48.818;9.312;2024-01-27T03:46:23;10.73;;;4.18;;
18172;SDS011;9211;48.818;9.312;2024-01-27T03:48:50;7.50;;;3.43;;
18172;SDS011;9211;48.818;9.312;2024-01-27T03:51:18;8.88;;;3.72;;
18172;SDS011;9211;48.818;9.312;2024-01-27T03:53:45;10.50;;;3.95;;
18172;SDS011;9211;48.818;9.312;2024-01-27T03:56:12;8.43;;;3.70;;
18172;SDS011;9211;48.818;9.312;2024-01-27T03:58:39;7.87;;;3.70;;
18172;SDS011;9211;48.818;9.312;2024-01-27T04:01:06;6.90;;;3.47;;
18172;SDS011;9211;48.818;9.312;2024-01-27T04:03:33;8.68;;;3.60;;
18172;SDS011;9211;48.818;9.312;2024-01-27T04:06:00;8.77;;;3.83;;
18172;SDS011;9211;48.818;9.312;2024-01-27T04:08:28;9.05;;;3.97;;
18172;SDS011;9211;48.818;9.312;2024-01-27T04:10:56;10.27;;;3.92;;
18172;SDS011;9211;48.818;9.312;2024-01-27T04:13:23;8.10;;;3.87;;
18172;SDS011;9211;48.818;9.312;2024-01-27T04:15:50;10.95;;;3.80;;
18172;SDS011;9211;48.818;9.312;2024-01-27T04:18:19;10.23;;;4.05;;
18172;SDS011;9211;48.818;9.312;2024-01-27T04:20:45;10.05;;;4.07;;
18172;SDS011;9211;48.818;9.312;2024-01-27T04:23:13;8.90;;;3.97;;
18172;SDS011;9211;48.818;9.312;2024-01-27T04:25:42;8.57;;;4.25;;
18172;SDS011;9211;48.818;9.312;2024-01-27T04:28:09;11.00;;;4.40;;
18172;SDS011;9211;48.818;9.312;2024-01-27T04:30:37;10.60;;;4.53;;
18172;SDS011;9211;48.818;9.312;2024-01-27T04:33:05;10.57;;;4.93;;
18172;SDS011;9211;48.818;9.312;2024-01-27T04:35:32;9.52;;;4.55;;
18172;SDS011;9211;48.818;9.312;2024-01-27T04:37:59;11.80;;;5.20;;
18172;SDS011;9211;48.818;9.312;2024-01-27T04:40:26;11.02;;;5.40;;
18172;SDS011;9211;48.818;9.312;2024-01-27T04:42:55;10.77;;;5.50;;
18172;SDS011;9211;48.818;9.312;2024-01-27T04:45:22;12.63;;;5.70;;
18172;SDS011;9211;48.818;9.312;2024-01-27T04:47:49;8.15;;;5.32;;
18172;SDS011;9211;48.818;9.312;2024-01-27T04:50:16;13.70;;;5.90;;
18172;SDS011;9211;48.818;9.312;2024-01-27T04:52:42;32.38;;;5.82;;
18172;SDS011;9211;48.818;9.312;2024-01-27T04:55:09;11.57;;;5.40;;
18172;SDS011;9211;48.818;9.312;2024-01-27T04:57:36;11.52;;;5.25;;
18172;SDS011;9211;48.818;9.312;2024-01-27T05:00:05;8.93;;;5.30;;
18172;SDS011;9211;48.818;9.312;2024-01-27T05:02:37;7.80;;;4.85;;
18172;SDS011;9211;48.818;9.312;2024-01-27T05:05:05;9.75;;;5.70;;
18172;SDS011;9211;48.818;9.312;2024-01-27T05:07:32;8.63;;;4.90;;
18172;SDS011;9211;48.818;9.312;2024-01-27T05:09:59;9.23;;;5.50;;
18172;SDS011;9211;48.818;9.312;2024-01-27T05:12:26;9.30;;;4.83;;
18172;SDS011;9211;48.818;9.312;2024-01-27T05:14:53;9.10;;;5.00;;
18172;SDS011;9211;48.818;9.312;2024-01-27T05:17:21;10.82;;;5.03;;
18172;SDS011;9211;48.818;9.312;2024-01-27T05:19:49;7.38;;;4.93;;
18172;SDS011;9211;48.818;9.312;2024-01-27T05:22:16;8.03;;;5.17;;
18172;SDS011;9211;48.818;9.312;2024-01-27T05:24:43;7.28;;;4.88;;
18172;SDS011;9211;48.818;9.312;2024-01-27T05:27:10;6.88;;;5.00;;
18172;SDS011;9211;48.818;9.312;2024-01-27T05:29:37;6.60;;;4.63;;
18172;SDS011;9211;48.818;9.312;2024-01-27T05:32:04;7.88;;;4.85;;
18172;SDS011;9211;48.818;9.312;2024-01-27T05:34:33;7.28;;;4.95;;
18172;SDS011;9211;48.818;9.312;2024-01-27T05:37:00;7.68;;;4.97;;
18172;SDS011;9211;48.818;9.312;2024-01-27T05:39:27;6.97;;;5.00;;
18172;SDS011;9211;48.818;9.312;2024-01-27T05:41:54;7.78;;;4.75;;
18172;SDS011;9211;48.818;9.312;2024-01-27T05:44:21;7.77;;;4.80;;
18172;SDS011;9211;48.818;9.312;2024-01-27T05:46:48;6.80;;;4.80;;
18172;SDS011;9211;48.818;9.312;2024-01-27T05:49:15;7.90;;;5.10;;
18172;SDS011;9211;48.818;9.312;2024-01-27T05:51:43;7.30;;;4.95;;
18172;SDS011;9211;48.818;9.312;2024-01-27T05:54:10;7.65;;;5.05;;
18172;SDS011;9211;48.818;9.312;2024-01-27T05:56:39;8.88;;;5.03;;
18172;SDS011;9211;48.818;9.312;2024-01-27T05:59:07;15.90;;;5.00;;
18172;SDS011;9211;48.818;9.312;2024-01-27T06:01:34;8.82;;;5.03;;
18172;SDS011;9211;48.818;9.312;2024-01-27T06:04:01;13.48;;;5.10;;
18172;SDS011;9211;48.818;9.312;2024-01-27T06:06:27;11.38;;;4.78;;
18172;SDS011;9211;48.818;9.312;2024-01-27T06:08:56;10.73;;;5.00;;
18172;SDS011;9211;48.818;9.312;2024-01-27T06:11:23;15.53;;;5.03;;
18172;SDS011;9211;48.818;9.312;2024-01-27T06:13:50;13.93;;;5.40;;
18172;SDS011;9211;48.818;9.312;2024-01-27T06:16:17;9.45;;;5.53;;
18172;SDS011;9211;48.818;9.312;2024-01-27T06:18:45;17.67;;;5.60;;
18172;SDS011;9211;48.818;9.312;2024-01-27T06:21:12;19.17;;;5.40;;
18172;SDS011;9211;48.818;9.312;2024-01-27T06:23:39;9.75;;;5.70;;
18172;SDS011;9211;48.818;9.312;2024-01-27T06:26:08;9.20;;;5.50;;
18172;SDS011;9211;48.818;9.312;2024-01-27T06:28:35;10.73;;;5.77;;
18172;SDS011;9211;48.818;9.312;2024-01-27T06:31:03;10.38;;;5.63;;
18172;SDS011;9211;48.818;9.312;2024-01-27T06:33:30;13.05;;;5.55;;
18172;SDS011;9211;48.818;9.312;2024-01-27T06:35:57;9.15;;;5.47;;
18172;SDS011;9211;48.818;9.312;2024-01-27T06:38:24;11.00;;;5.32;;
18172;SDS011;9211;48.818;9.312;2024-01-27T06:40:52;8.48;;;5.00;;
18172;SDS011;9211;48.818;9.312;2024-01-27T06:43:20;10.15;;;5.63;;
18172;SDS011;9211;48.818;9.312;2024-01-27T06:45:48;7.22;;;4.90;;
18172;SDS011;9211;48.818;9.312;2024-01-27T06:48:15;23.75;;;5.60;;
18172;SDS011;9211;48.818;9.312;2024-01-27T06:50:42;13.97;;;5.47;;
18172;SDS011;9211;48.818;9.312;2024-01-27T06:53:09;11.88;;;5.70;;
18172;SDS011;9211;48.818;9.312;2024-01-27T06:55:36;11.63;;;5.40;;
18172;SDS011;9211;48.818;9.312;2024-01-27T06:58:03;11.25;;;5.35;;
18172;SDS011;9211;48.818;9.312;2024-01-27T07:00:31;12.47;;;5.57;;
18172;SDS011;9211;48.818;9.312;2024-01-27T07:02:58;13.80;;;5.78;;
18172;SDS011;9211;48.818;9.312;2024-01-27T07:05:25;10.88;;;6.10;;
18172;SDS011;9211;48.818;9.312;2024-01-27T07:07:52;10.05;;;5.68;;
18172;SDS011;9211;48.818;9.312;2024-01-27T07:10:19;9.38;;;5.68;;
18172;SDS011;9211;48.818;9.312;2024-01-27T07:12:46;10.57;;;5.90;;
18172;SDS011;9211;48.818;9.312;2024-01-27T07:15:12;10.63;;;5.90;;
18172;SDS011;9211;48.818;9.312;2024-01-27T07:17:41;12.68;;;6.55;;
18172;SDS011;9211;48.818;9.312;2024-01-27T07:20:08;13.23;;;6.90;;
18172;SDS011;9211;48.818;9.312;2024-01-27T07:22:36;15.43;;;7.38;;
18172;SDS011;9211;48.818;9.312;2024-01-27T07:25:03;11.65;;;7.00;;
18172;SDS011;9211;48.818;9.312;2024-01-27T07:27:32;11.23;;;6.45;;
18172;SDS011;9211;48.818;9.312;2024-01-27T07:29:59;10.57;;;6.00;;
18172;SDS011;9211;48.818;9.312;2024-01-27T07:32:26;10.03;;;5.97;;
18172;SDS011;9211;48.818;9.312;2024-01-27T07:34:54;9.38;;;5.95;;
18172;SDS011;9211;48.818;9.312;2024-01-27T07:37:21;10.70;;;6.38;;
18172;SDS011;9211;48.818;9.312;2024-01-27T07:39:48;14.85;;;6.03;;
18172;SDS011;9211;48.818;9.312;2024-01-27T07:42:15;10.47;;;6.10;;
18172;SDS011;9211;48.818;9.312;2024-01-27T07:44:42;13.85;;;5.93;;
18172;SDS011;9211;48.818;9.312;2024-01-27T07:47:09;11.23;;;6.32;;
18172;SDS011;9211;48.818;9.312;2024-01-27T07:49:35;15.05;;;6.53;;
18172;SDS011;9211;48.818;9.312;2024-01-27T07:52:04;15.52;;;6.57;;
18172;SDS011;9211;48.818;9.312;2024-01-27T07:54:31;15.68;;;6.55;;
18172;SDS011;9211;48.818;9.312;2024-01-27T07:57:04;16.93;;;6.37;;
18172;SDS011;9211;48.818;9.312;2024-01-27T07:59:31;19.35;;;6.25;;
18172;SDS011;9211;48.818;9.312;2024-01-27T08:01:58;14.52;;;5.90;;
18172;SDS011;9211;48.818;9.312;2024-01-27T08:04:25;22.45;;;6.35;;
18172;SDS011;9211;48.818;9.312;2024-01-27T08:06:52;24.60;;;6.75;;
18172;SDS011;9211;48.818;9.312;2024-01-27T08:09:21;26.97;;;6.63;;
18172;SDS011;9211;48.818;9.312;2024-01-27T08:11:48;14.35;;;6.45;;
18172;SDS011;9211;48.818;9.312;2024-01-27T08:14:17;18.05;;;6.75;;
18172;SDS011;9211;48.818;9.312;2024-01-27T08:16:45;11.02;;;6.70;;
18172;SDS011;9211;48.818;9.312;2024-01-27T08:19:12;11.77;;;6.60;;
18172;SDS011;9211;48.818;9.312;2024-01-27T08:21:39;11.80;;;6.15;;
18172;SDS011;9211;48.818;9.312;2024-01-27T08:24:06;14.35;;;6.40;;
18172;SDS011;9211;48.818;9.312;2024-01-27T08:26:34;13.55;;;6.20;;
18172;SDS011;9211;48.818;9.312;2024-01-27T08:29:01;9.82;;;6.10;;
18172;SDS011;9211;48.818;9.312;2024-01-27T08:31:28;17.03;;;6.17;;
18172;SDS011;9211;48.818;9.312;2024-01-27T08:33:55;12.02;;;6.15;;
18172;SDS011;9211;48.818;9.312;2024-01-27T08:36:23;17.77;;;6.67;;
18172;SDS011;9211;48.818;9.312;2024-01-27T08:38:50;35.55;;;6.72;;
18172;SDS011;9211;48.818;9.312;2024-01-27T08:41:17;16.08;;;6.57;;
18172;SDS011;9211;48.818;9.312;2024-01-27T08:43:45;14.20;;;6.40;;
18172;SDS011;9211;48.818;9.312;2024-01-27T08:46:12;18.77;;;6.43;;
18172;SDS011;9211;48.818;9.312;2024-01-27T08:48:40;26.75;;;7.22;;
18172;SDS011;9211;48.818;9.312;2024-01-27T08:51:08;19.40;;;6.77;;
18172;SDS011;9211;48.818;9.312;2024-01-27T08:53:35;22.15;;;7.10;;
18172;SDS011;9211;48.818;9.312;2024-01-27T08:56:02;16.95;;;6.68;;
18172;SDS011;9211;48.818;9.312;2024-01-27T08:58:30;12.98;;;6.53;;
18172;SDS011;9211;48.818;9.312;2024-01-27T09:00:59;21.43;;;7.33;;
18172;SDS011;9211;48.818;9.312;2024-01-27T09:03:30;13.03;;;6.70;;
18172;SDS011;9211;48.818;9.312;2024-01-27T09:05:57;12.73;;;7.18;;
18172;SDS011;9211;48.818;9.312;2024-01-27T09:08:24;12.68;;;7.53;;
18172;SDS011;9211;48.818;9.312;2024-01-27T09:10:51;16.63;;;9.48;;
18172;SDS011;9211;48.818;9.312;2024-01-27T09:13:18;29.92;;;11.00;;
18172;SDS011;9211;48.818;9.312;2024-01-27T09:15:45;31.55;;;12.30;;
18172;SDS011;9211;48.818;9.312;2024-01-27T09:18:13;24.95;;;12.00;;
18172;SDS011;9211;48.818;9.312;2024-01-27T09:20:42;38.90;;;11.60;;
18172;SDS011;9211;48.818;9.312;2024-01-27T09:23:09;42.92;;;13.27;;
18172;SDS011;9211;48.818;9.312;2024-01-27T09:25:37;34.70;;;13.18;;
18172;SDS011;9211;48.818;9.312;2024-01-27T09:28:04;26.55;;;12.73;;
18172;SDS011;9211;48.818;9.312;2024-01-27T09:30:31;22.15;;;11.30;;
18172;SDS011;9211;48.818;9.312;2024-01-27T09:32:58;17.70;;;10.18;;
18172;SDS011;9211;48.818;9.312;2024-01-27T09:35:26;20.67;;;10.40;;
18172;SDS011;9211;48.818;9.312;2024-01-27T09:37:54;20.63;;;10.75;;
18172;SDS011;9211;48.818;9.312;2024-01-27T09:40:21;20.52;;;11.35;;
18172;SDS011;9211;48.818;9.312;2024-01-27T09:42:50;19.63;;;11.02;;
18172;SDS011;9211;48.818;9.312;2024-01-27T09:45:18;21.20;;;11.05;;
18172;SDS011;9211;48.818;9.312;2024-01-27T09:47:46;19.08;;;9.95;;
18172;SDS011;9211;48.818;9.312;2024-01-27T09:50:14;20.60;;;10.43;;
18172;SDS011;9211;48.818;9.312;2024-01-27T09:52:43;21.73;;;10.40;;
18172;SDS011;9211;48.818;9.312;2024-01-27T09:55:10;19.23;;;10.07;;
18172;SDS011;9211;48.818;9.312;2024-01-27T09:57:37;18.48;;;10.15;;
18172;SDS011;9211;48.818;9.312;2024-01-27T10:00:06;19.08;;;9.88;;
18172;SDS011;9211;48.818;9.312;2024-01-27T10:02:38;20.45;;;10.07;;
18172;SDS011;9211;48.818;9.312;2024-01-27T10:05:07;18.60;;;9.68;;
18172;SDS011;9211;48.818;9.312;2024-01-27T10:07:35;19.52;;;9.50;;
18172;SDS011;9211;48.818;9.312;2024-01-27T10:10:04;18.20;;;8.60;;
18172;SDS011;9211;48.818;9.312;2024-01-27T10:12:32;19.52;;;8.95;;
18172;SDS011;9211;48.818;9.312;2024-01-27T10:15:06;21.00;;;9.52;;
18172;SDS011;9211;48.818;9.312;2024-01-27T10:17:33;21.00;;;10.48;;
18172;SDS011;9211;48.818;9.312;2024-01-27T10:20:03;21.38;;;9.80;;
18172;SDS011;9211;48.818;9.312;2024-01-27T10:22:39;18.83;;;9.18;;
18172;SDS011;9211;48.818;9.312;2024-01-27T10:25:08;15.55;;;8.57;;
18172;SDS011;9211;48.818;9.312;2024-01-27T10:27:35;16.92;;;8.20;;
18172;SDS011;9211;48.818;9.312;2024-01-27T10:30:03;15.75;;;7.95;;
18172;SDS011;9211;48.818;9.312;2024-01-27T10:32:32;16.60;;;7.80;;
18172;SDS011;9211;48.818;9.312;2024-01-27T10:35:02;14.40;;;7.10;;
18172;SDS011;9211;48.818;9.312;2024-01-27T10:37:30;15.18;;;7.55;;
18172;SDS011;9211;48.818;9.312;2024-01-27T10:40:01;15.77;;;7.50;;
18172;SDS011;9211;48.818;9.312;2024-01-27T10:42:30;16.75;;;7.57;;
18172;SDS011;9211;48.818;9.312;2024-01-27T10:44:57;15.57;;;7.38;;
18172;SDS011;9211;48.818;9.312;2024-01-27T10:47:27;17.92;;;7.30;;
18172;SDS011;9211;48.818;9.312;2024-01-27T10:49:56;17.10;;;8.27;;
18172;SDS011;9211;48.818;9.312;2024-01-27T10:52:24;16.17;;;7.45;;
18172;SDS011;9211;48.818;9.312;2024-01-27T10:54:55;14.48;;;7.00;;
18172;SDS011;9211;48.818;9.312;2024-01-27T10:57:26;16.65;;;6.70;;
18172;SDS011;9211;48.818;9.312;2024-01-27T10:59:54;15.57;;;6.78;;
18172;SDS011;9211;48.818;9.312;2024-01-27T11:02:23;20.05;;;6.43;;
18172;SDS011;9211;48.818;9.312;2024-01-27T11:04:50;15.43;;;6.10;;
18172;SDS011;9211;48.818;9.312;2024-01-27T11:07:18;15.07;;;5.97;;
18172;SDS011;9211;48.818;9.312;2024-01-27T11:09:48;18.23;;;6.15;;
18172;SDS011;9211;48.818;9.312;2024-01-27T11:12:16;19.10;;;6.45;;
18172;SDS011;9211;48.818;9.312;2024-01-27T11:14:44;18.13;;;6.70;;
18172;SDS011;9211;48.818;9.312;2024-01-27T11:17:13;13.53;;;6.03;;
18172;SDS011;9211;48.818;9.312;2024-01-27T11:19:40;19.27;;;6.60;;
18172;SDS011;9211;48.818;9.312;2024-01-27T11:22:07;11.93;;;5.65;;
18172;SDS011;9211;48.818;9.312;2024-01-27T11:24:34;13.65;;;5.90;;
18172;SDS011;9211;48.818;9.312;2024-01-27T11:27:02;16.52;;;6.40;;
18172;SDS011;9211;48.818;9.312;2024-01-27T11:29:29;14.23;;;5.78;;
18172;SDS011;9211;48.818;9.312;2024-01-27T11:31:59;12.75;;;5.30;;
18172;SDS011;9211;48.818;9.312;2024-01-27T11:34:28;14.27;;;5.27;;
18172;SDS011;9211;48.818;9.312;2024-01-27T11:37:09;15.90;;;5.18;;
18172;SDS011;9211;48.818;9.312;2024-01-27T11:39:38;13.45;;;4.13;;
18172;SDS011;9211;48.818;9.312;2024-01-27T11:42:05;12.38;;;4.45;;
18172;SDS011;9211;48.818;9.312;2024-01-27T11:44:33;12.10;;;4.22;;
18172;SDS011;9211;48.818;9.312;2024-01-27T11:47:01;13.80;;;4.32;;
18172;SDS011;9211;48.818;9.312;2024-01-27T11:49:29;15.98;;;4.68;;
18172;SDS011;9211;48.818;9.312;2024-01-27T11:51:56;11.85;;;3.72;;
18172;SDS011;9211;48.818;9.312;2024-01-27T11:54:23;14.05;;;4.82;;
18172;SDS011;9211;48.818;9.312;2024-01-27T11:56:50;12.90;;;4.70;;
18172;SDS011;9211;48.818;9.312;2024-01-27T11:59:17;12.55;;;4.47;;
18172;SDS011;9211;48.818;9.312;2024-01-27T12:01:44;11.40;;;4.47;;
18172;SDS011;9211;48.818;9.312;2024-01-27T12:04:11;13.30;;;4.70;;
18172;SDS011;9211;48.818;9.312;2024-01-27T12:06:41;10.55;;;4.63;;
18172;SDS011;9211;48.818;9.312;2024-01-27T12:09:09;10.47;;;4.10;;
18172;SDS011;9211;48.818;9.312;2024-01-27T12:11:37;11.13;;;4.18;;
18172;SDS011;9211;48.818;9.312;2024-01-27T12:14:05;14.55;;;4.80;;
18172;SDS011;9211;48.818;9.312;2024-01-27T12:16:32;16.02;;;5.18;;
18172;SDS011;9211;48.818;9.312;2024-01-27T12:18:59;12.23;;;4.55;;
18172;SDS011;9211;48.818;9.312;2024-01-27T12:21:26;11.80;;;5.00;;
18172;SDS011;9211;48.818;9.312;2024-01-27T12:23:55;10.98;;;4.30;;
18172;SDS011;9211;48.818;9.312;2024-01-27T12:26:23;12.93;;;4.70;;
18172;SDS011;9211;48.818;9.312;2024-01-27T12:28:51;11.00;;;4.40;;
18172;SDS011;9211;48.818;9.312;2024-01-27T12:31:20;14.37;;;4.60;;
18172;SDS011;9211;48.818;9.312;2024-01-27T12:33:49;10.35;;;4.40;;
18172;SDS011;9211;48.818;9.312;2024-01-27T12:36:17;16.13;;;4.70;;
18172;SDS011;9211;48.818;9.312;2024-01-27T12:38:57;11.80;;;3.75;;
18172;SDS011;9211;48.818;9.312;2024-01-27T12:41:24;11.48;;;4.35;;
18172;SDS011;9211;48.818;9.312;2024-01-27T12:43:52;9.77;;;3.90;;
18172;SDS011;9211;48.818;9.312;2024-01-27T12:46:19;11.18;;;3.88;;
18172;SDS011;9211;48.818;9.312;2024-01-27T12:48:46;9.45;;;3.92;;
18172;SDS011;9211;48.818;9.312;2024-01-27T12:51:13;10.63;;;3.92;;
18172;SDS011;9211;48.818;9.312;2024-01-27T12:53:41;12.02;;;3.90;;
18172;SDS011;9211;48.818;9.312;2024-01-27T12:56:11;13.25;;;4.13;;
18172;SDS011;9211;48.818;9.312;2024-01-27T12:58:39;11.90;;;4.20;;
18172;SDS011;9211;48.818;9.312;2024-01-27T13:01:06;10.80;;;3.88;;
18172;SDS011;9211;48.818;9.312;2024-01-27T13:03:34;9.95;;;3.70;;
18172;SDS011;9211;48.818;9.312;2024-01-27T13:06:01;10.70;;;3.90;;
18172;SDS011;9211;48.818;9.312;2024-01-27T13:08:29;9.65;;;3.92;;
18172;SDS011;9211;48.818;9.312;2024-01-27T13:10:56;11.40;;;3.95;;
18172;SDS011;9211;48.818;9.312;2024-01-27T13:13:24;11.50;;;3.55;;
18172;SDS011;9211;48.818;9.312;2024-01-27T13:15:51;9.40;;;3.50;;
18172;SDS011;9211;48.818;9.312;2024-01-27T13:18:18;8.68;;;3.60;;
18172;SDS011;9211;48.818;9.312;2024-01-27T13:20:45;10.68;;;3.50;;
18172;SDS011;9211;48.818;9.312;2024-01-27T13:23:12;10.57;;;3.72;;
18172;SDS011;9211;48.818;9.312;2024-01-27T13:25:38;9.93;;;3.70;;
18172;SDS011;9211;48.818;9.312;2024-01-27T13:28:05;10.13;;;3.72;;
18172;SDS011;9211;48.818;9.312;2024-01-27T13:30:37;13.50;;;3.57;;
18172;SDS011;9211;48.818;9.312;2024-01-27T13:33:04;8.75;;;3.25;;
18172;SDS011;9211;48.818;9.312;2024-01-27T13:35:31;8.93;;;3.28;;
18172;SDS011;9211;48.818;9.312;2024-01-27T13:37:58;10.32;;;3.35;;
18172;SDS011;9211;48.818;9.312;2024-01-27T13:40:25;9.17;;;3.20;;
18172;SDS011;9211;48.818;9.312;2024-01-27T13:42:53;8.77;;;3.05;;
18172;SDS011;9211;48.818;9.312;2024-01-27T13:45:20;9.73;;;3.35;;
18172;SDS011;9211;48.818;9.312;2024-01-27T13:47:48;10.00;;;2.70;;
18172;SDS011;9211;48.818;9.312;2024-01-27T13:50:15;7.10;;;2.67;;
18172;SDS011;9211;48.818;9.312;2024-01-27T13:52:42;7.85;;;2.75;;
18172;SDS011;9211;48.818;9.312;2024-01-27T13:55:11;10.23;;;2.80;;
18172;SDS011;9211;48.818;9.312;2024-01-27T13:57:38;8.52;;;3.25;;
18172;SDS011;9211;48.818;9.312;2024-01-27T14:00:06;9.45;;;3.00;;
18172;SDS011;9211;48.818;9.312;2024-01-27T14:02:33;7.90;;;2.90;;
18172;SDS011;9211;48.818;9.312;2024-01-27T14:05:02;8.53;;;2.63;;
18172;SDS011;9211;48.818;9.312;2024-01-27T14:07:29;9.05;;;3.00;;
18172;SDS011;9211;48.818;9.312;2024-01-27T14:09:56;7.93;;;2.57;;
18172;SDS011;9211;48.818;9.312;2024-01-27T14:12:23;7.55;;;2.40;;
18172;SDS011;9211;48.818;9.312;2024-01-27T14:14:50;7.75;;;2.22;;
18172;SDS011;9211;48.818;9.312;2024-01-27T14:17:17;9.32;;;2.35;;
18172;SDS011;9211;48.818;9.312;2024-01-27T14:19:45;7.60;;;2.20;;
18172;SDS011;9211;48.818;9.312;2024-01-27T14:22:14;8.50;;;2.10;;
18172;SDS011;9211;48.818;9.312;2024-01-27T14:24:42;6.82;;;2.10;;
18172;SDS011;9211;48.818;9.312;2024-01-27T14:27:09;8.50;;;2.33;;
18172;SDS011;9211;48.818;9.312;2024-01-27T14:29:36;5.60;;;1.87;;
18172;SDS011;9211;48.818;9.312;2024-01-27T14:32:03;6.80;;;2.13;;
18172;SDS011;9211;48.818;9.312;2024-01-27T14:34:32;7.70;;;2.25;;
18172;SDS011;9211;48.818;9.312;2024-01-27T14:36:58;7.85;;;2.10;;
18172;SDS011;9211;48.818;9.312;2024-01-27T14:39:28;6.28;;;2.15;;
18172;SDS011;9211;48.818;9.312;2024-01-27T14:41:56;7.43;;;2.08;;
18172;SDS011;9211;48.818;9.312;2024-01-27T14:44:23;6.65;;;2.10;;
18172;SDS011;9211;48.818;9.312;2024-01-27T14:46:50;9.57;;;2.13;;
18172;SDS011;9211;48.818;9.312;2024-01-27T14:49:16;5.85;;;2.10;;
18172;SDS011;9211;48.818;9.312;2024-01-27T14:51:43;9.03;;;2.47;;